createdAt,value
2017-12-29T00:00:04.096Z,64.70
2017-12-29T00:02:32.369Z,64.40
2017-12-29T00:05:00.665Z,64.40
2017-12-29T00:07:28.167Z,64.40
2017-12-29T00:09:55.656Z,64.40
2017-12-29T00:12:23.964Z,63.90
2017-12-29T00:14:51.532Z,64.70
2017-12-29T00:17:19.027Z,64.10
2017-12-29T00:19:46.533Z,64.60
2017-12-29T00:22:14.064Z,64.90
2017-12-29T00:24:42.364Z,65.20
2017-12-29T00:27:09.859Z,65.10
2017-12-29T00:29:37.372Z,65.60
2017-12-29T00:32:04.954Z,65.70
2017-12-29T00:34:33.286Z,65.90
2017-12-29T00:37:01.567Z,66.30
2017-12-29T00:39:29.826Z,65.80
2017-12-29T00:41:57.363Z,65.80
2017-12-29T00:44:24.867Z,65.80
2017-12-29T00:46:52.367Z,65.40
2017-12-29T00:49:19.884Z,65.20
2017-12-29T00:51:47.375Z,65.00
2017-12-29T00:54:14.907Z,65.00
2017-12-29T00:56:42.428Z,65.20
2017-12-29T00:59:09.933Z,65.10
2017-12-29T01:01:37.481Z,65.00
2017-12-29T01:04:04.976Z,64.60
2017-12-29T01:06:32.492Z,64.40
2017-12-29T01:08:59.991Z,64.20
2017-12-29T01:11:27.508Z,64.30
2017-12-29T01:13:54.999Z,64.20
2017-12-29T01:16:22.490Z,64.20
2017-12-29T01:18:50.032Z,64.30
2017-12-29T01:21:17.524Z,64.30
2017-12-29T01:23:45.789Z,64.30
2017-12-29T01:26:14.080Z,64.20
2017-12-29T01:28:41.581Z,64.20
2017-12-29T01:31:09.113Z,64.10
2017-12-29T01:33:36.598Z,64.00
2017-12-29T01:36:04.107Z,64.40
2017-12-29T01:38:32.430Z,64.40
2017-12-29T01:40:59.922Z,64.40
2017-12-29T01:43:27.415Z,64.60
2017-12-29T01:45:54.959Z,64.60
2017-12-29T01:48:23.249Z,64.30
2017-12-29T01:50:50.746Z,65.20
2017-12-29T01:53:18.270Z,64.20
2017-12-29T01:55:45.791Z,64.20
2017-12-29T01:58:14.071Z,64.20
2017-12-29T02:00:42.371Z,63.90
2017-12-29T02:03:09.868Z,63.90
2017-12-29T02:05:37.372Z,63.90
2017-12-29T02:08:04.883Z,64.00
2017-12-29T02:10:32.424Z,63.90
2017-12-29T02:12:59.958Z,63.70
2017-12-29T02:15:27.481Z,64.00
2017-12-29T02:17:54.971Z,64.20
2017-12-29T02:20:22.488Z,63.60
2017-12-29T02:22:49.987Z,63.30
2017-12-29T02:25:17.519Z,63.40
2017-12-29T02:27:45.763Z,62.90
2017-12-29T02:30:13.292Z,63.00
2017-12-29T02:32:40.804Z,63.10
2017-12-29T02:35:09.056Z,62.80
2017-12-29T02:37:36.547Z,62.70
2017-12-29T02:40:04.826Z,62.60
2017-12-29T02:42:33.132Z,62.60
2017-12-29T02:45:00.647Z,62.60
2017-12-29T02:47:28.909Z,62.80
2017-12-29T02:49:56.413Z,62.90
2017-12-29T02:52:23.974Z,62.50
2017-12-29T02:54:51.468Z,62.40
2017-12-29T02:57:18.962Z,62.10
2017-12-29T02:59:47.253Z,62.20
2017-12-29T03:02:14.741Z,62.20
2017-12-29T03:04:42.263Z,62.00
2017-12-29T03:07:09.808Z,62.20
2017-12-29T03:09:38.076Z,62.50
2017-12-29T03:12:05.571Z,62.50
2017-12-29T03:14:33.081Z,62.30
2017-12-29T03:17:00.595Z,62.00
2017-12-29T03:19:28.151Z,62.60
2017-12-29T03:21:55.655Z,62.30
2017-12-29T03:24:23.907Z,63.50
2017-12-29T03:26:51.429Z,62.50
2017-12-29T03:29:18.924Z,62.20
2017-12-29T03:31:46.467Z,62.40
2017-12-29T03:34:13.955Z,62.50
2017-12-29T03:36:42.959Z,62.10
2017-12-29T03:39:11.259Z,62.10
2017-12-29T03:41:38.753Z,62.00
2017-12-29T03:44:06.271Z,62.50
2017-12-29T03:46:33.760Z,62.70
2017-12-29T03:49:01.253Z,62.30
2017-12-29T03:51:28.769Z,62.70
2017-12-29T03:53:56.248Z,63.30
2017-12-29T03:56:23.758Z,62.40
2017-12-29T03:58:51.251Z,62.20
2017-12-29T04:01:18.763Z,62.00
2017-12-29T04:03:46.268Z,62.10
2017-12-29T04:06:13.768Z,62.20
2017-12-29T04:08:42.077Z,62.10
2017-12-29T04:11:09.568Z,62.00
2017-12-29T04:13:37.056Z,62.40
2017-12-29T04:16:05.357Z,62.30
2017-12-29T04:18:32.855Z,62.30
2017-12-29T04:21:00.399Z,62.50
2017-12-29T04:23:27.889Z,62.40
2017-12-29T04:25:55.388Z,62.50
2017-12-29T04:28:22.905Z,62.70
2017-12-29T04:30:50.391Z,62.00
2017-12-29T04:33:17.907Z,61.90
2017-12-29T04:35:45.442Z,62.30
2017-12-29T04:38:12.966Z,62.20
2017-12-29T04:40:40.468Z,62.30
2017-12-29T04:43:07.967Z,62.50
2017-12-29T04:45:36.252Z,62.50
2017-12-29T04:48:04.496Z,62.60
2017-12-29T04:50:32.007Z,62.50
2017-12-29T04:52:59.520Z,62.70
2017-12-29T04:55:27.061Z,63.10
2017-12-29T04:57:54.571Z,62.70
2017-12-29T05:00:22.052Z,62.90
2017-12-29T05:02:49.591Z,62.50
2017-12-29T05:05:17.086Z,62.60
2017-12-29T05:07:45.343Z,62.90
2017-12-29T05:10:12.861Z,62.90
2017-12-29T05:12:40.343Z,62.90
2017-12-29T05:15:07.835Z,62.90
2017-12-29T05:17:35.352Z,62.80
2017-12-29T05:20:02.931Z,63.00
2017-12-29T05:22:30.388Z,63.10
2017-12-29T05:24:57.897Z,62.90
2017-12-29T05:27:26.162Z,63.50
2017-12-29T05:29:53.687Z,63.50
2017-12-29T05:32:21.176Z,63.80
2017-12-29T05:34:49.462Z,64.10
2017-12-29T05:37:17.715Z,64.30
2017-12-29T05:39:45.195Z,64.30
2017-12-29T05:42:12.708Z,64.30
2017-12-29T05:44:40.206Z,64.00
2017-12-29T05:47:08.492Z,64.20
2017-12-29T05:49:35.982Z,64.20
2017-12-29T05:52:03.516Z,63.70
2017-12-29T05:54:31.028Z,63.50
2017-12-29T05:56:58.525Z,63.60
2017-12-29T05:59:26.040Z,62.90
2017-12-29T06:01:53.540Z,62.70
2017-12-29T06:04:21.063Z,62.20
2017-12-29T06:06:48.584Z,61.60
2017-12-29T06:09:16.083Z,61.20
2017-12-29T06:11:44.348Z,62.00
2017-12-29T06:14:11.891Z,61.10
2017-12-29T06:16:39.420Z,60.60
2017-12-29T06:19:06.907Z,60.40
2017-12-29T06:21:34.408Z,60.20
2017-12-29T06:24:01.933Z,60.90
2017-12-29T06:26:29.436Z,59.50
2017-12-29T06:28:56.932Z,59.80
2017-12-29T06:31:24.461Z,59.70
2017-12-29T06:33:52.031Z,59.70
2017-12-29T06:36:19.523Z,59.60
2017-12-29T06:38:47.040Z,59.80
2017-12-29T06:41:14.567Z,59.60
2017-12-29T06:43:42.855Z,59.40
2017-12-29T06:46:10.382Z,59.40
2017-12-29T06:48:38.641Z,59.50
2017-12-29T06:51:06.894Z,59.30
2017-12-29T06:53:34.413Z,59.30
2017-12-29T06:56:01.956Z,59.50
2017-12-29T06:58:30.215Z,59.10
2017-12-29T07:00:58.511Z,59.00
2017-12-29T07:03:26.764Z,58.60
2017-12-29T07:05:54.275Z,59.20
2017-12-29T07:08:21.770Z,58.50
2017-12-29T07:10:49.275Z,58.50
2017-12-29T07:13:16.799Z,58.00
2017-12-29T07:15:45.095Z,58.20
2017-12-29T07:18:12.599Z,57.60
2017-12-29T07:20:40.132Z,57.70
2017-12-29T07:23:07.635Z,57.60
2017-12-29T07:25:35.164Z,57.80
2017-12-29T07:28:02.658Z,57.60
2017-12-29T07:30:30.956Z,57.70
2017-12-29T07:32:58.460Z,57.70
2017-12-29T07:35:25.992Z,57.60
2017-12-29T07:37:53.524Z,57.80
2017-12-29T07:40:21.034Z,57.70
2017-12-29T07:42:48.548Z,57.50
2017-12-29T07:45:16.052Z,57.70
2017-12-29T07:47:43.581Z,57.80
2017-12-29T07:50:11.081Z,57.80
2017-12-29T07:52:38.571Z,57.50
2017-12-29T07:55:06.849Z,57.60
2017-12-29T07:57:35.106Z,57.50
2017-12-29T08:00:03.383Z,57.70
2017-12-29T08:02:31.668Z,57.80
2017-12-29T08:04:59.921Z,57.90
2017-12-29T08:07:27.436Z,58.00
2017-12-29T08:09:54.936Z,58.10
2017-12-29T08:12:22.476Z,58.10
2017-12-29T08:14:49.979Z,57.90
2017-12-29T08:17:18.242Z,58.20
2017-12-29T08:19:46.539Z,58.50
2017-12-29T08:22:14.031Z,58.50
2017-12-29T08:24:41.531Z,58.90
2017-12-29T08:27:09.807Z,59.30
2017-12-29T08:29:38.107Z,59.50
2017-12-29T08:32:05.643Z,59.50
2017-12-29T08:34:33.916Z,59.70
2017-12-29T08:37:02.255Z,59.60
2017-12-29T08:39:29.753Z,59.60
2017-12-29T08:41:58.020Z,59.60
2017-12-29T08:44:26.303Z,59.30
2017-12-29T08:46:54.567Z,59.40
2017-12-29T08:49:22.856Z,58.40
2017-12-29T08:51:51.121Z,57.10
2017-12-29T08:54:19.398Z,57.00
2017-12-29T08:56:47.682Z,56.70
2017-12-29T08:59:15.943Z,56.30
2017-12-29T09:01:43.460Z,56.30
2017-12-29T09:04:10.964Z,55.60
2017-12-29T09:06:39.264Z,55.50
2017-12-29T09:09:06.768Z,55.50
2017-12-29T09:11:34.280Z,54.20
2017-12-29T09:14:01.851Z,54.50
2017-12-29T09:16:29.381Z,54.50
2017-12-29T09:18:57.676Z,54.50
2017-12-29T09:21:25.191Z,54.50
2017-12-29T09:23:54.217Z,53.90
2017-12-29T09:26:21.746Z,54.50
2017-12-29T09:28:49.239Z,53.70
2017-12-29T09:31:16.734Z,53.80
2017-12-29T09:33:44.267Z,54.00
2017-12-29T09:36:11.765Z,53.60
2017-12-29T09:38:39.291Z,53.10
2017-12-29T09:41:06.804Z,53.10
2017-12-29T09:43:35.083Z,53.80
2017-12-29T09:46:03.364Z,53.20
2017-12-29T09:48:30.871Z,53.20
2017-12-29T09:50:58.379Z,52.40
2017-12-29T09:53:25.903Z,52.10
2017-12-29T09:55:53.386Z,52.20
2017-12-29T09:58:21.656Z,51.80
2017-12-29T10:00:49.924Z,51.90
2017-12-29T10:03:18.236Z,51.30
2017-12-29T10:05:45.766Z,51.30
2017-12-29T10:08:14.037Z,50.70
2017-12-29T10:10:42.333Z,50.70
2017-12-29T10:13:09.843Z,50.60
2017-12-29T10:15:38.161Z,50.50
2017-12-29T10:18:05.651Z,50.50
2017-12-29T10:20:33.151Z,50.40
2017-12-29T10:23:00.675Z,50.40
2017-12-29T10:25:28.172Z,49.70
2017-12-29T10:27:55.695Z,50.10
2017-12-29T10:30:23.188Z,50.60
2017-12-29T10:32:51.475Z,50.10
2017-12-29T10:35:19.740Z,48.50
2017-12-29T10:37:48.006Z,48.60
2017-12-29T10:40:15.615Z,48.50
2017-12-29T10:42:43.103Z,48.70
2017-12-29T10:45:10.631Z,48.10
2017-12-29T10:47:38.144Z,48.20
2017-12-29T10:50:05.683Z,48.90
2017-12-29T10:52:33.217Z,48.70
2017-12-29T10:55:00.732Z,47.50
2017-12-29T10:57:29.028Z,46.80
2017-12-29T10:59:56.579Z,46.80
2017-12-29T11:02:24.102Z,46.40
2017-12-29T11:04:52.395Z,47.20
2017-12-29T11:07:20.660Z,46.70
2017-12-29T11:09:48.960Z,45.80
2017-12-29T11:12:16.455Z,45.80
2017-12-29T11:14:43.992Z,46.10
2017-12-29T11:17:11.512Z,46.20
2017-12-29T11:19:39.843Z,45.00
2017-12-29T11:22:07.355Z,45.00
2017-12-29T11:24:35.626Z,44.80
2017-12-29T11:27:03.923Z,44.70
2017-12-29T11:29:31.427Z,44.70
2017-12-29T11:31:58.965Z,45.00
2017-12-29T11:34:26.530Z,45.60
2017-12-29T11:36:54.053Z,45.30
2017-12-29T11:39:21.554Z,46.20
2017-12-29T11:41:49.049Z,46.50
2017-12-29T11:44:17.381Z,46.90
2017-12-29T11:46:44.904Z,46.80
2017-12-29T11:49:12.417Z,45.00
2017-12-29T11:51:39.903Z,43.30
2017-12-29T11:54:07.435Z,42.50
2017-12-29T11:56:34.952Z,41.20
2017-12-29T11:59:02.441Z,41.30
2017-12-29T12:01:29.977Z,39.90
2017-12-29T12:03:57.486Z,39.80
2017-12-29T12:06:25.767Z,36.30
2017-12-29T12:08:53.287Z,36.30
2017-12-29T12:11:20.789Z,36.50
2017-12-29T12:13:48.301Z,35.80
2017-12-29T12:16:15.812Z,36.20
2017-12-29T12:18:43.320Z,35.80
2017-12-29T12:21:10.844Z,35.80
2017-12-29T12:23:38.358Z,34.70
2017-12-29T12:26:06.695Z,35.20
2017-12-29T12:28:34.231Z,35.20
2017-12-29T12:31:01.737Z,34.90
2017-12-29T12:33:30.008Z,34.90
2017-12-29T12:35:57.533Z,34.90
2017-12-29T12:38:25.042Z,33.90
2017-12-29T12:40:53.334Z,30.50
2017-12-29T12:43:20.827Z,30.40
2017-12-29T12:45:48.381Z,31.50
2017-12-29T12:48:15.890Z,30.50
2017-12-29T12:50:44.151Z,30.60
2017-12-29T12:53:11.660Z,30.50
2017-12-29T12:55:39.151Z,30.40
2017-12-29T12:58:06.675Z,30.70
2017-12-29T13:00:34.196Z,31.90
2017-12-29T13:03:02.611Z,33.30
2017-12-29T13:05:30.132Z,33.30
2017-12-29T13:07:57.705Z,33.60
2017-12-29T13:10:25.215Z,35.20
2017-12-29T13:12:52.742Z,36.20
2017-12-29T13:15:20.294Z,36.70
2017-12-29T13:17:47.887Z,37.10
2017-12-29T13:20:15.409Z,37.50
2017-12-29T13:22:42.911Z,38.30
2017-12-29T13:25:10.454Z,38.50
2017-12-29T13:27:37.956Z,39.00
2017-12-29T13:30:06.260Z,39.60
2017-12-29T13:32:33.779Z,39.60
2017-12-29T13:35:02.047Z,40.10
2017-12-29T13:37:29.580Z,40.00
2017-12-29T13:39:57.111Z,40.60
2017-12-29T13:42:24.604Z,41.00
2017-12-29T13:44:52.159Z,41.40
2017-12-29T13:47:19.648Z,41.60
2017-12-29T13:49:47.920Z,43.00
2017-12-29T13:52:16.230Z,43.20
2017-12-29T13:54:43.728Z,43.10
2017-12-29T13:57:11.273Z,43.40
2017-12-29T13:59:38.787Z,43.70
2017-12-29T14:02:06.301Z,44.00
2017-12-29T14:04:33.843Z,44.30
2017-12-29T14:07:01.397Z,44.40
2017-12-29T14:09:28.925Z,44.80
2017-12-29T14:11:56.473Z,44.40
2017-12-29T14:14:23.975Z,44.70
2017-12-29T14:16:51.608Z,45.10
2017-12-29T14:19:19.186Z,45.00
2017-12-29T14:21:46.694Z,45.10
2017-12-29T14:24:14.189Z,45.60
2017-12-29T14:26:41.726Z,45.80
2017-12-29T14:29:09.255Z,45.80
2017-12-29T14:31:36.780Z,45.70
2017-12-29T14:34:04.280Z,46.20
2017-12-29T14:36:32.559Z,46.10
2017-12-29T14:39:00.831Z,46.30
2017-12-29T14:41:29.119Z,46.00
2017-12-29T14:43:57.407Z,46.20
2017-12-29T14:46:24.927Z,46.20
2017-12-29T14:48:52.467Z,46.40
2017-12-29T14:51:19.961Z,46.50
2017-12-29T14:53:48.283Z,46.60
2017-12-29T14:56:15.798Z,46.60
2017-12-29T14:58:44.055Z,48.10
2017-12-29T15:01:11.597Z,48.10
2017-12-29T15:03:39.110Z,48.40
2017-12-29T15:06:06.609Z,49.20
2017-12-29T15:08:34.143Z,49.20
2017-12-29T15:11:01.633Z,49.80
2017-12-29T15:13:29.202Z,50.40
2017-12-29T15:15:56.694Z,50.50
2017-12-29T15:18:24.236Z,50.80
2017-12-29T15:20:51.740Z,51.00
2017-12-29T15:23:19.233Z,51.00
2017-12-29T15:25:47.522Z,52.20
2017-12-29T15:28:15.828Z,51.60
2017-12-29T15:30:44.186Z,51.60
2017-12-29T15:33:11.699Z,51.70
2017-12-29T15:35:39.250Z,51.90
2017-12-29T15:38:06.744Z,51.90
2017-12-29T15:40:34.273Z,51.80
2017-12-29T15:43:01.868Z,51.90
2017-12-29T15:45:29.396Z,51.70
2017-12-29T15:47:57.674Z,51.90
2017-12-29T15:50:25.198Z,51.90
2017-12-29T15:52:52.711Z,52.10
2017-12-29T15:55:21.016Z,52.20
2017-12-29T15:57:48.520Z,52.20
2017-12-29T16:00:16.027Z,52.30
2017-12-29T16:02:43.592Z,52.20
2017-12-29T16:05:11.116Z,52.10
2017-12-29T16:07:39.415Z,52.20
2017-12-29T16:10:06.934Z,52.20
2017-12-29T16:12:34.457Z,52.10
2017-12-29T16:15:02.021Z,52.20
2017-12-29T16:17:29.512Z,52.20
2017-12-29T16:19:56.999Z,52.30
2017-12-29T16:22:24.525Z,52.30
2017-12-29T16:24:52.025Z,52.10
2017-12-29T16:27:19.528Z,52.30
2017-12-29T16:29:47.067Z,52.30
2017-12-29T16:32:14.587Z,52.40
2017-12-29T16:34:42.109Z,52.40
2017-12-29T16:37:09.614Z,52.30
2017-12-29T16:39:37.126Z,52.30
2017-12-29T16:42:04.666Z,52.10
2017-12-29T16:44:32.172Z,52.20
2017-12-29T16:46:59.688Z,52.10
2017-12-29T16:49:27.210Z,53.10
2017-12-29T16:51:54.716Z,53.60
2017-12-29T16:54:22.268Z,54.70
2017-12-29T16:56:49.765Z,56.00
2017-12-29T16:59:17.251Z,56.20
2017-12-29T17:01:44.789Z,58.30
2017-12-29T17:04:12.280Z,59.20
2017-12-29T17:06:39.820Z,58.90
2017-12-29T17:09:07.344Z,58.70
2017-12-29T17:11:34.875Z,59.30
2017-12-29T17:14:03.151Z,60.30
2017-12-29T17:16:31.448Z,59.70
2017-12-29T17:18:58.974Z,59.60
2017-12-29T17:21:26.504Z,59.30
2017-12-29T17:23:54.020Z,59.20
2017-12-29T17:26:22.290Z,59.90
2017-12-29T17:28:50.610Z,59.90
2017-12-29T17:31:18.100Z,59.90
2017-12-29T17:33:45.603Z,60.40
2017-12-29T17:36:13.149Z,60.90
2017-12-29T17:38:40.663Z,61.80
2017-12-29T17:41:08.182Z,61.60
2017-12-29T17:43:35.739Z,61.70
2017-12-29T17:46:03.257Z,62.90
2017-12-29T17:48:31.550Z,66.60
2017-12-29T17:50:59.832Z,66.20
2017-12-29T17:53:27.328Z,66.20
2017-12-29T17:55:54.868Z,66.80
2017-12-29T17:58:22.369Z,66.40
2017-12-29T18:00:49.913Z,65.80
2017-12-29T18:03:17.447Z,65.90
2017-12-29T18:05:44.947Z,67.30
2017-12-29T18:08:12.496Z,68.70
2017-12-29T18:10:40.006Z,70.50
2017-12-29T18:13:07.504Z,71.80
2017-12-29T18:15:35.031Z,72.20
2017-12-29T18:18:02.529Z,72.80
2017-12-29T18:20:30.073Z,72.90
2017-12-29T18:22:57.576Z,73.00
2017-12-29T18:25:25.844Z,73.10
2017-12-29T18:27:54.132Z,72.90
2017-12-29T18:30:21.647Z,72.80
2017-12-29T18:32:49.156Z,73.20
2017-12-29T18:35:16.680Z,72.90
2017-12-29T18:37:44.203Z,73.00
2017-12-29T18:40:11.773Z,73.30
2017-12-29T18:42:39.312Z,73.20
2017-12-29T18:45:06.814Z,73.30
2017-12-29T18:47:35.424Z,73.90
2017-12-29T18:50:02.964Z,73.90
2017-12-29T18:52:31.244Z,75.80
2017-12-29T18:54:59.502Z,76.80
2017-12-29T18:57:27.060Z,76.80
2017-12-29T18:59:54.801Z,77.40
2017-12-29T19:02:23.111Z,79.80
2017-12-29T19:04:51.367Z,80.80
2017-12-29T19:07:18.879Z,80.70
2017-12-29T19:09:46.385Z,81.80
2017-12-29T19:12:13.954Z,81.90
2017-12-29T19:14:42.237Z,82.60
2017-12-29T19:17:10.508Z,83.30
2017-12-29T19:19:38.802Z,83.00
2017-12-29T19:22:06.353Z,83.00
2017-12-29T19:24:34.660Z,83.30
2017-12-29T19:27:02.174Z,83.20
2017-12-29T19:29:30.463Z,83.30
2017-12-29T19:31:57.976Z,83.30
2017-12-29T19:34:25.482Z,83.40
2017-12-29T19:36:53.027Z,83.80
2017-12-29T19:39:21.338Z,84.50
2017-12-29T19:41:48.924Z,84.50
2017-12-29T19:44:16.523Z,84.40
2017-12-29T19:46:44.860Z,85.80
2017-12-29T19:49:12.377Z,85.60
2017-12-29T19:51:39.984Z,85.80
2017-12-29T19:54:07.601Z,86.00
2017-12-29T19:56:35.166Z,86.00
2017-12-29T19:59:03.008Z,85.90
2017-12-29T20:01:31.389Z,87.40
2017-12-29T20:03:59.006Z,87.30
2017-12-29T20:06:26.656Z,87.40
2017-12-29T20:08:54.246Z,87.00
2017-12-29T20:11:22.580Z,87.80
2017-12-29T20:13:50.169Z,86.70
2017-12-29T20:16:17.748Z,86.50
2017-12-29T20:18:46.110Z,86.70
2017-12-29T20:21:14.484Z,86.80
2017-12-29T20:23:42.189Z,86.80
2017-12-29T20:26:09.794Z,86.70
2017-12-29T20:28:37.368Z,87.40
2017-12-29T20:31:05.104Z,87.30
2017-12-29T20:33:32.681Z,86.80
2017-12-29T20:36:00.394Z,86.80
2017-12-29T20:38:28.029Z,87.00
2017-12-29T20:40:56.382Z,86.40
2017-12-29T20:43:23.975Z,86.40
2017-12-29T20:45:52.395Z,86.20
2017-12-29T20:48:20.063Z,86.20
2017-12-29T20:50:47.897Z,86.00
2017-12-29T20:53:15.528Z,85.90
2017-12-29T20:55:43.928Z,85.40
2017-12-29T20:58:11.525Z,85.30
2017-12-29T21:00:39.153Z,85.20
2017-12-29T21:03:06.847Z,85.40
2017-12-29T21:05:34.460Z,85.30
2017-12-29T21:08:02.821Z,85.20
2017-12-29T21:10:31.221Z,85.20
2017-12-29T21:12:58.868Z,85.90
2017-12-29T21:15:27.361Z,85.20
2017-12-29T21:17:54.980Z,85.20
2017-12-29T21:20:22.590Z,85.20
2017-12-29T21:22:50.289Z,85.00
2017-12-29T21:25:17.906Z,85.20
2017-12-29T21:27:45.503Z,85.90
2017-12-29T21:30:13.125Z,84.80
2017-12-29T21:32:40.729Z,84.60
2017-12-29T21:35:08.408Z,84.60
2017-12-29T21:37:36.006Z,84.60
2017-12-29T21:40:03.664Z,84.30
2017-12-29T21:42:31.269Z,84.60
2017-12-29T21:44:58.755Z,84.50
2017-12-29T21:47:27.015Z,85.00
2017-12-29T21:49:54.549Z,85.00
2017-12-29T21:52:22.045Z,84.90
2017-12-29T21:54:50.300Z,84.70
2017-12-29T21:57:17.814Z,84.70
2017-12-29T21:59:45.325Z,84.80
2017-12-29T22:02:12.858Z,84.80
2017-12-29T22:04:40.373Z,84.80
2017-12-29T22:07:07.906Z,84.70
2017-12-29T22:09:36.183Z,85.00
2017-12-29T22:12:03.694Z,84.80
2017-12-29T22:14:31.234Z,84.40
2017-12-29T22:16:58.776Z,84.60
2017-12-29T22:19:26.312Z,84.40
2017-12-29T22:21:53.890Z,84.60
2017-12-29T22:24:21.456Z,84.50
2017-12-29T22:26:48.981Z,84.90
2017-12-29T22:29:16.470Z,85.10
2017-12-29T22:31:43.963Z,85.00
2017-12-29T22:34:11.477Z,84.60
2017-12-29T22:36:39.064Z,84.60
2017-12-29T22:39:06.576Z,84.50
2017-12-29T22:41:34.842Z,84.50
2017-12-29T22:44:02.400Z,84.50
2017-12-29T22:46:29.893Z,84.30
2017-12-29T22:48:57.408Z,84.40
2017-12-29T22:51:24.919Z,84.30
2017-12-29T22:53:52.436Z,84.20
2017-12-29T22:56:19.976Z,84.00
2017-12-29T22:58:47.484Z,83.80
2017-12-29T23:01:15.019Z,83.60
2017-12-29T23:03:42.534Z,83.40
2017-12-29T23:06:10.036Z,83.30
2017-12-29T23:08:38.342Z,83.20
2017-12-29T23:11:05.878Z,83.20
2017-12-29T23:13:34.144Z,83.10
2017-12-29T23:16:02.436Z,82.90
2017-12-29T23:18:29.944Z,82.80
2017-12-29T23:20:57.482Z,82.60
2017-12-29T23:23:25.007Z,82.60
2017-12-29T23:25:52.524Z,82.50
2017-12-29T23:28:20.054Z,82.30
2017-12-29T23:30:47.561Z,82.10
2017-12-29T23:33:15.821Z,81.80
2017-12-29T23:35:43.349Z,81.80
2017-12-29T23:38:10.861Z,81.80
2017-12-29T23:40:38.384Z,81.10
2017-12-29T23:43:05.909Z,81.10
2017-12-29T23:45:33.447Z,80.30
2017-12-29T23:48:00.964Z,80.30
2017-12-29T23:50:28.472Z,79.90
2017-12-29T23:52:56.015Z,80.80
2017-12-29T23:55:23.535Z,79.60
2017-12-29T23:57:51.028Z,79.20
